sensor_id;sensor_type;location;lat;lon;timestamp;P1;durP1;ratioP1;P2;durP2;ratioP2
20423;SDS011;10371;49.042;8.002;2023-05-10T00:00:25;1.00;;;1.00;;
20423;SDS011;10371;49.042;8.002;2023-05-10T00:01:26;1.08;;;1.00;;
20423;SDS011;10371;49.042;8.002;2023-05-10T00:02:26;0.90;;;0.90;;
20423;SDS011;10371;49.042;8.002;2023-05-10T00:03:26;1.08;;;1.05;;
20423;SDS011;10371;49.042;8.002;2023-05-10T00:04:27;0.90;;;0.90;;
20423;SDS011;10371;49.042;8.002;2023-05-10T00:05:27;0.90;;;0.90;;
20423;SDS011;10371;49.042;8.002;2023-05-10T00:06:27;0.90;;;0.90;;
20423;SDS011;10371;49.042;8.002;2023-05-10T00:07:28;0.93;;;0.93;;
20423;SDS011;10371;49.042;8.002;2023-05-10T00:08:28;2.45;;;1.10;;
20423;SDS011;10371;49.042;8.002;2023-05-10T00:09:28;0.90;;;0.90;;
20423;SDS011;10371;49.042;8.002;2023-05-10T00:10:29;1.20;;;1.20;;
20423;SDS011;10371;49.042;8.002;2023-05-10T00:11:29;1.35;;;1.23;;
20423;SDS011;10371;49.042;8.002;2023-05-10T00:12:29;1.20;;;1.20;;
20423;SDS011;10371;49.042;8.002;2023-05-10T00:13:29;1.10;;;1.10;;
20423;SDS011;10371;49.042;8.002;2023-05-10T00:14:31;1.27;;;1.20;;
20423;SDS011;10371;49.042;8.002;2023-05-10T00:15:31;1.10;;;1.10;;
20423;SDS011;10371;49.042;8.002;2023-05-10T00:16:32;1.10;;;1.10;;
20423;SDS011;10371;49.042;8.002;2023-05-10T00:17:32;1.50;;;1.40;;
20423;SDS011;10371;49.042;8.002;2023-05-10T00:18:32;1.20;;;1.20;;
20423;SDS011;10371;49.042;8.002;2023-05-10T00:19:33;1.67;;;1.40;;
20423;SDS011;10371;49.042;8.002;2023-05-10T00:20:33;1.30;;;1.30;;
20423;SDS011;10371;49.042;8.002;2023-05-10T00:21:33;1.20;;;1.10;;
20423;SDS011;10371;49.042;8.002;2023-05-10T00:22:33;1.25;;;1.25;;
20423;SDS011;10371;49.042;8.002;2023-05-10T00:23:34;1.20;;;1.20;;
20423;SDS011;10371;49.042;8.002;2023-05-10T00:24:34;1.38;;;1.27;;
20423;SDS011;10371;49.042;8.002;2023-05-10T00:25:35;1.92;;;1.30;;
20423;SDS011;10371;49.042;8.002;2023-05-10T00:26:35;1.63;;;1.27;;
20423;SDS011;10371;49.042;8.002;2023-05-10T00:27:35;1.40;;;1.30;;
20423;SDS011;10371;49.042;8.002;2023-05-10T00:28:36;1.23;;;1.23;;
20423;SDS011;10371;49.042;8.002;2023-05-10T00:29:36;1.50;;;1.40;;
20423;SDS011;10371;49.042;8.002;2023-05-10T00:30:36;1.50;;;1.50;;
20423;SDS011;10371;49.042;8.002;2023-05-10T00:31:36;1.42;;;1.33;;
20423;SDS011;10371;49.042;8.002;2023-05-10T00:32:37;1.35;;;1.25;;
20423;SDS011;10371;49.042;8.002;2023-05-10T00:33:37;1.77;;;1.65;;
20423;SDS011;10371;49.042;8.002;2023-05-10T00:34:37;1.60;;;1.50;;
20423;SDS011;10371;49.042;8.002;2023-05-10T00:35:37;1.48;;;1.48;;
20423;SDS011;10371;49.042;8.002;2023-05-10T00:36:38;1.70;;;1.52;;
20423;SDS011;10371;49.042;8.002;2023-05-10T00:37:38;1.60;;;1.50;;
20423;SDS011;10371;49.042;8.002;2023-05-10T00:38:38;2.20;;;1.50;;
20423;SDS011;10371;49.042;8.002;2023-05-10T00:39:39;2.38;;;1.83;;
20423;SDS011;10371;49.042;8.002;2023-05-10T00:40:39;1.70;;;1.60;;
20423;SDS011;10371;49.042;8.002;2023-05-10T00:41:39;1.85;;;1.75;;
20423;SDS011;10371;49.042;8.002;2023-05-10T00:42:40;1.48;;;1.40;;
20423;SDS011;10371;49.042;8.002;2023-05-10T00:43:40;1.98;;;1.67;;
20423;SDS011;10371;49.042;8.002;2023-05-10T00:44:41;1.85;;;1.75;;
20423;SDS011;10371;49.042;8.002;2023-05-10T00:45:41;1.80;;;1.70;;
20423;SDS011;10371;49.042;8.002;2023-05-10T00:46:42;1.70;;;1.60;;
20423;SDS011;10371;49.042;8.002;2023-05-10T00:47:42;1.83;;;1.73;;
20423;SDS011;10371;49.042;8.002;2023-05-10T00:48:43;1.70;;;1.60;;
20423;SDS011;10371;49.042;8.002;2023-05-10T00:49:44;2.10;;;1.90;;
20423;SDS011;10371;49.042;8.002;2023-05-10T00:50:45;2.30;;;1.90;;
20423;SDS011;10371;49.042;8.002;2023-05-10T00:51:46;2.00;;;1.90;;
20423;SDS011;10371;49.042;8.002;2023-05-10T00:52:46;2.53;;;2.33;;
20423;SDS011;10371;49.042;8.002;2023-05-10T00:53:47;2.15;;;1.95;;
20423;SDS011;10371;49.042;8.002;2023-05-10T00:54:50;2.80;;;2.53;;
20423;SDS011;10371;49.042;8.002;2023-05-10T00:55:52;2.80;;;1.98;;
20423;SDS011;10371;49.042;8.002;2023-05-10T00:56:52;4.03;;;2.53;;
20423;SDS011;10371;49.042;8.002;2023-05-10T00:57:53;2.53;;;2.33;;
20423;SDS011;10371;49.042;8.002;2023-05-10T00:58:53;2.42;;;2.20;;
20423;SDS011;10371;49.042;8.002;2023-05-10T00:59:54;3.55;;;2.17;;
20423;SDS011;10371;49.042;8.002;2023-05-10T01:00:54;2.45;;;2.25;;
20423;SDS011;10371;49.042;8.002;2023-05-10T01:01:56;2.55;;;2.25;;
20423;SDS011;10371;49.042;8.002;2023-05-10T01:02:57;3.42;;;2.30;;
20423;SDS011;10371;49.042;8.002;2023-05-10T01:03:58;2.60;;;2.40;;
20423;SDS011;10371;49.042;8.002;2023-05-10T01:04:59;4.80;;;2.60;;
20423;SDS011;10371;49.042;8.002;2023-05-10T01:06:01;2.80;;;2.20;;
20423;SDS011;10371;49.042;8.002;2023-05-10T01:07:01;3.58;;;2.90;;
20423;SDS011;10371;49.042;8.002;2023-05-10T01:08:02;5.13;;;2.78;;
20423;SDS011;10371;49.042;8.002;2023-05-10T01:09:02;5.57;;;3.30;;
20423;SDS011;10371;49.042;8.002;2023-05-10T01:10:03;3.08;;;2.88;;
20423;SDS011;10371;49.042;8.002;2023-05-10T01:11:03;3.97;;;2.67;;
20423;SDS011;10371;49.042;8.002;2023-05-10T01:12:04;3.28;;;2.30;;
20423;SDS011;10371;49.042;8.002;2023-05-10T01:13:06;2.42;;;2.20;;
20423;SDS011;10371;49.042;8.002;2023-05-10T01:14:07;2.58;;;1.90;;
20423;SDS011;10371;49.042;8.002;2023-05-10T01:15:08;2.13;;;1.98;;
20423;SDS011;10371;49.042;8.002;2023-05-10T01:16:10;2.20;;;2.00;;
20423;SDS011;10371;49.042;8.002;2023-05-10T01:17:11;1.77;;;1.67;;
20423;SDS011;10371;49.042;8.002;2023-05-10T01:18:12;2.35;;;2.10;;
20423;SDS011;10371;49.042;8.002;2023-05-10T01:19:17;1.90;;;1.80;;
20423;SDS011;10371;49.042;8.002;2023-05-10T01:20:32;1.63;;;1.42;;
20423;SDS011;10371;49.042;8.002;2023-05-10T01:21:49;2.20;;;1.55;;
20423;SDS011;10371;49.042;8.002;2023-05-10T01:23:10;2.53;;;1.70;;
20423;SDS011;10371;49.042;8.002;2023-05-10T01:26:47;1.70;;;1.60;;
20423;SDS011;10371;49.042;8.002;2023-05-10T01:33:11;2.00;;;1.80;;
20423;SDS011;10371;49.042;8.002;2023-05-10T01:34:23;2.00;;;1.90;;
20423;SDS011;10371;49.042;8.002;2023-05-10T01:35:39;2.92;;;2.17;;
20423;SDS011;10371;49.042;8.002;2023-05-10T01:36:55;2.38;;;2.28;;
20423;SDS011;10371;49.042;8.002;2023-05-10T01:38:16;7.05;;;2.70;;
20423;SDS011;10371;49.042;8.002;2023-05-10T01:39:32;2.97;;;2.60;;
20423;SDS011;10371;49.042;8.002;2023-05-10T01:40:47;3.45;;;3.15;;
20423;SDS011;10371;49.042;8.002;2023-05-10T01:43:22;3.70;;;3.40;;
20423;SDS011;10371;49.042;8.002;2023-05-10T01:44:31;3.47;;;3.28;;
20423;SDS011;10371;49.042;8.002;2023-05-10T01:45:39;3.45;;;3.25;;
20423;SDS011;10371;49.042;8.002;2023-05-10T01:46:54;3.53;;;3.25;;
20423;SDS011;10371;49.042;8.002;2023-05-10T01:49:11;3.75;;;3.45;;
20423;SDS011;10371;49.042;8.002;2023-05-10T01:50:19;3.10;;;2.90;;
20423;SDS011;10371;49.042;8.002;2023-05-10T01:51:24;3.13;;;2.75;;
20423;SDS011;10371;49.042;8.002;2023-05-10T01:52:30;3.05;;;2.83;;
20423;SDS011;10371;49.042;8.002;2023-05-10T01:53:36;3.85;;;3.05;;
20423;SDS011;10371;49.042;8.002;2023-05-10T01:54:40;3.05;;;2.85;;
20423;SDS011;10371;49.042;8.002;2023-05-10T01:55:53;3.05;;;2.83;;
20423;SDS011;10371;49.042;8.002;2023-05-10T01:56:57;2.85;;;2.65;;
20423;SDS011;10371;49.042;8.002;2023-05-10T01:58:04;2.80;;;2.60;;
20423;SDS011;10371;49.042;8.002;2023-05-10T01:59:11;3.00;;;2.80;;
20423;SDS011;10371;49.042;8.002;2023-05-10T02:00:15;3.03;;;2.83;;
20423;SDS011;10371;49.042;8.002;2023-05-10T02:01:16;3.17;;;2.95;;
20423;SDS011;10371;49.042;8.002;2023-05-10T02:02:20;2.95;;;2.75;;
20423;SDS011;10371;49.042;8.002;2023-05-10T02:03:22;2.83;;;2.60;;
20423;SDS011;10371;49.042;8.002;2023-05-10T02:04:23;2.47;;;2.28;;
20423;SDS011;10371;49.042;8.002;2023-05-10T02:05:25;2.40;;;2.20;;
20423;SDS011;10371;49.042;8.002;2023-05-10T02:06:29;2.60;;;2.50;;
20423;SDS011;10371;49.042;8.002;2023-05-10T02:07:30;2.78;;;2.60;;
20423;SDS011;10371;49.042;8.002;2023-05-10T02:08:34;3.30;;;2.90;;
20423;SDS011;10371;49.042;8.002;2023-05-10T02:09:36;2.72;;;2.53;;
20423;SDS011;10371;49.042;8.002;2023-05-10T02:10:37;2.95;;;2.70;;
20423;SDS011;10371;49.042;8.002;2023-05-10T02:11:41;3.15;;;2.75;;
20423;SDS011;10371;49.042;8.002;2023-05-10T02:12:43;3.50;;;3.20;;
20423;SDS011;10371;49.042;8.002;2023-05-10T02:13:45;2.90;;;2.70;;
20423;SDS011;10371;49.042;8.002;2023-05-10T02:14:48;3.17;;;2.88;;
20423;SDS011;10371;49.042;8.002;2023-05-10T02:15:50;3.03;;;2.70;;
20423;SDS011;10371;49.042;8.002;2023-05-10T02:16:53;3.05;;;2.85;;
20423;SDS011;10371;49.042;8.002;2023-05-10T02:17:55;3.33;;;3.10;;
20423;SDS011;10371;49.042;8.002;2023-05-10T02:18:57;3.22;;;3.03;;
20423;SDS011;10371;49.042;8.002;2023-05-10T02:20:01;3.70;;;3.40;;
20423;SDS011;10371;49.042;8.002;2023-05-10T02:21:03;3.63;;;3.40;;
20423;SDS011;10371;49.042;8.002;2023-05-10T02:22:04;3.63;;;3.33;;
20423;SDS011;10371;49.042;8.002;2023-05-10T02:23:06;4.20;;;3.90;;
20423;SDS011;10371;49.042;8.002;2023-05-10T02:24:08;5.38;;;4.97;;
20423;SDS011;10371;49.042;8.002;2023-05-10T02:25:11;5.82;;;5.35;;
20423;SDS011;10371;49.042;8.002;2023-05-10T02:26:13;6.40;;;5.80;;
20423;SDS011;10371;49.042;8.002;2023-05-10T02:27:15;5.30;;;4.90;;
20423;SDS011;10371;49.042;8.002;2023-05-10T02:28:17;6.28;;;5.78;;
20423;SDS011;10371;49.042;8.002;2023-05-10T02:29:19;7.65;;;7.05;;
20423;SDS011;10371;49.042;8.002;2023-05-10T02:30:20;7.47;;;6.93;;
20423;SDS011;10371;49.042;8.002;2023-05-10T02:31:22;7.32;;;6.60;;
20423;SDS011;10371;49.042;8.002;2023-05-10T02:32:24;7.20;;;6.70;;
20423;SDS011;10371;49.042;8.002;2023-05-10T02:33:26;6.97;;;6.38;;
20423;SDS011;10371;49.042;8.002;2023-05-10T02:34:28;6.53;;;6.07;;
20423;SDS011;10371;49.042;8.002;2023-05-10T02:35:30;6.25;;;5.85;;
20423;SDS011;10371;49.042;8.002;2023-05-10T02:36:33;6.28;;;5.78;;
20423;SDS011;10371;49.042;8.002;2023-05-10T02:37:34;7.57;;;6.75;;
20423;SDS011;10371;49.042;8.002;2023-05-10T02:38:36;6.80;;;6.30;;
20423;SDS011;10371;49.042;8.002;2023-05-10T02:39:37;6.88;;;6.35;;
20423;SDS011;10371;49.042;8.002;2023-05-10T02:40:40;6.78;;;6.28;;
20423;SDS011;10371;49.042;8.002;2023-05-10T02:41:42;7.20;;;6.53;;
20423;SDS011;10371;49.042;8.002;2023-05-10T02:42:45;6.90;;;6.30;;
20423;SDS011;10371;49.042;8.002;2023-05-10T02:43:50;6.05;;;5.65;;
20423;SDS011;10371;49.042;8.002;2023-05-10T02:44:52;5.03;;;4.53;;
20423;SDS011;10371;49.042;8.002;2023-05-10T02:45:56;4.97;;;4.47;;
20423;SDS011;10371;49.042;8.002;2023-05-10T02:46:57;4.57;;;4.28;;
20423;SDS011;10371;49.042;8.002;2023-05-10T02:47:58;4.22;;;3.92;;
20423;SDS011;10371;49.042;8.002;2023-05-10T02:49:00;4.35;;;3.90;;
20423;SDS011;10371;49.042;8.002;2023-05-10T02:50:00;3.65;;;3.45;;
20423;SDS011;10371;49.042;8.002;2023-05-10T02:51:03;4.03;;;3.20;;
20423;SDS011;10371;49.042;8.002;2023-05-10T02:52:07;3.33;;;3.13;;
20423;SDS011;10371;49.042;8.002;2023-05-10T02:53:15;3.08;;;2.88;;
20423;SDS011;10371;49.042;8.002;2023-05-10T02:54:19;3.45;;;2.90;;
20423;SDS011;10371;49.042;8.002;2023-05-10T02:55:25;3.40;;;3.20;;
20423;SDS011;10371;49.042;8.002;2023-05-10T02:56:33;3.72;;;3.40;;
20423;SDS011;10371;49.042;8.002;2023-05-10T02:57:35;6.68;;;3.92;;
20423;SDS011;10371;49.042;8.002;2023-05-10T02:58:41;4.40;;;4.10;;
20423;SDS011;10371;49.042;8.002;2023-05-10T02:59:42;4.25;;;3.95;;
20423;SDS011;10371;49.042;8.002;2023-05-10T03:00:43;4.78;;;4.45;;
20423;SDS011;10371;49.042;8.002;2023-05-10T03:01:43;5.28;;;4.97;;
20423;SDS011;10371;49.042;8.002;2023-05-10T03:02:43;5.15;;;4.80;;
20423;SDS011;10371;49.042;8.002;2023-05-10T03:03:43;6.57;;;6.07;;
20423;SDS011;10371;49.042;8.002;2023-05-10T03:04:44;6.38;;;5.88;;
20423;SDS011;10371;49.042;8.002;2023-05-10T03:05:44;7.65;;;6.95;;
20423;SDS011;10371;49.042;8.002;2023-05-10T03:06:44;6.57;;;6.03;;
20423;SDS011;10371;49.042;8.002;2023-05-10T03:07:45;6.40;;;6.00;;
20423;SDS011;10371;49.042;8.002;2023-05-10T03:08:46;6.68;;;6.13;;
20423;SDS011;10371;49.042;8.002;2023-05-10T03:09:47;7.13;;;6.63;;
20423;SDS011;10371;49.042;8.002;2023-05-10T03:10:55;6.80;;;6.28;;
20423;SDS011;10371;49.042;8.002;2023-05-10T03:12:21;6.72;;;6.25;;
20423;SDS011;10371;49.042;8.002;2023-05-10T03:13:33;7.60;;;7.00;;
20423;SDS011;10371;49.042;8.002;2023-05-10T03:14:57;8.07;;;7.30;;
20423;SDS011;10371;49.042;8.002;2023-05-10T03:16:15;7.63;;;7.03;;
20423;SDS011;10371;49.042;8.002;2023-05-10T03:17:30;7.68;;;7.00;;
20423;SDS011;10371;49.042;8.002;2023-05-10T03:18:34;7.65;;;6.93;;
20423;SDS011;10371;49.042;8.002;2023-05-10T03:19:55;7.10;;;6.50;;
20423;SDS011;10371;49.042;8.002;2023-05-10T03:20:59;8.27;;;7.57;;
20423;SDS011;10371;49.042;8.002;2023-05-10T03:22:06;8.95;;;8.15;;
20423;SDS011;10371;49.042;8.002;2023-05-10T03:23:34;8.75;;;7.90;;
20423;SDS011;10371;49.042;8.002;2023-05-10T03:24:35;8.40;;;7.60;;
20423;SDS011;10371;49.042;8.002;2023-05-10T03:25:36;9.70;;;8.90;;
20423;SDS011;10371;49.042;8.002;2023-05-10T03:26:37;11.13;;;10.23;;
20423;SDS011;10371;49.042;8.002;2023-05-10T03:27:39;10.70;;;9.70;;
20423;SDS011;10371;49.042;8.002;2023-05-10T03:28:41;11.27;;;10.32;;
20423;SDS011;10371;49.042;8.002;2023-05-10T03:29:42;11.43;;;10.60;;
20423;SDS011;10371;49.042;8.002;2023-05-10T03:30:44;10.95;;;10.15;;
20423;SDS011;10371;49.042;8.002;2023-05-10T03:31:45;11.68;;;10.82;;
20423;SDS011;10371;49.042;8.002;2023-05-10T03:32:45;10.85;;;10.05;;
20423;SDS011;10371;49.042;8.002;2023-05-10T03:33:48;10.45;;;9.65;;
20423;SDS011;10371;49.042;8.002;2023-05-10T03:34:50;9.60;;;8.80;;
20423;SDS011;10371;49.042;8.002;2023-05-10T03:35:50;9.13;;;8.43;;
20423;SDS011;10371;49.042;8.002;2023-05-10T03:36:50;8.27;;;7.68;;
20423;SDS011;10371;49.042;8.002;2023-05-10T03:37:51;9.85;;;9.05;;
20423;SDS011;10371;49.042;8.002;2023-05-10T03:38:51;9.65;;;8.95;;
20423;SDS011;10371;49.042;8.002;2023-05-10T03:39:51;11.10;;;10.30;;
20423;SDS011;10371;49.042;8.002;2023-05-10T03:40:52;11.88;;;10.85;;
20423;SDS011;10371;49.042;8.002;2023-05-10T03:41:52;10.45;;;9.65;;
20423;SDS011;10371;49.042;8.002;2023-05-10T03:42:52;10.95;;;9.95;;
20423;SDS011;10371;49.042;8.002;2023-05-10T03:43:53;10.02;;;9.32;;
20423;SDS011;10371;49.042;8.002;2023-05-10T03:44:53;9.98;;;9.07;;
20423;SDS011;10371;49.042;8.002;2023-05-10T03:45:53;9.13;;;8.27;;
20423;SDS011;10371;49.042;8.002;2023-05-10T03:46:54;8.73;;;7.97;;
20423;SDS011;10371;49.042;8.002;2023-05-10T03:47:55;8.75;;;7.93;;
20423;SDS011;10371;49.042;8.002;2023-05-10T03:48:56;9.02;;;8.32;;
20423;SDS011;10371;49.042;8.002;2023-05-10T03:49:56;9.63;;;8.77;;
20423;SDS011;10371;49.042;8.002;2023-05-10T03:50:56;10.57;;;9.65;;
20423;SDS011;10371;49.042;8.002;2023-05-10T03:51:57;12.13;;;11.05;;
20423;SDS011;10371;49.042;8.002;2023-05-10T03:52:57;11.63;;;10.73;;
20423;SDS011;10371;49.042;8.002;2023-05-10T03:53:57;13.15;;;11.98;;
20423;SDS011;10371;49.042;8.002;2023-05-10T03:54:57;11.77;;;10.88;;
20423;SDS011;10371;49.042;8.002;2023-05-10T03:55:58;11.02;;;10.23;;
20423;SDS011;10371;49.042;8.002;2023-05-10T03:56:58;9.45;;;8.65;;
20423;SDS011;10371;49.042;8.002;2023-05-10T03:57:58;9.18;;;8.57;;
20423;SDS011;10371;49.042;8.002;2023-05-10T03:58:59;9.27;;;8.48;;
20423;SDS011;10371;49.042;8.002;2023-05-10T03:59:59;9.05;;;8.20;;
20423;SDS011;10371;49.042;8.002;2023-05-10T04:00:59;8.05;;;7.35;;
20423;SDS011;10371;49.042;8.002;2023-05-10T04:02:00;8.07;;;7.47;;
20423;SDS011;10371;49.042;8.002;2023-05-10T04:03:00;7.78;;;7.18;;
20423;SDS011;10371;49.042;8.002;2023-05-10T04:04:00;7.53;;;6.93;;
20423;SDS011;10371;49.042;8.002;2023-05-10T04:05:01;8.15;;;7.55;;
20423;SDS011;10371;49.042;8.002;2023-05-10T04:06:02;7.78;;;7.07;;
20423;SDS011;10371;49.042;8.002;2023-05-10T04:07:02;7.75;;;7.20;;
20423;SDS011;10371;49.042;8.002;2023-05-10T04:08:03;7.85;;;7.35;;
20423;SDS011;10371;49.042;8.002;2023-05-10T04:09:03;7.60;;;7.00;;
20423;SDS011;10371;49.042;8.002;2023-05-10T04:10:04;7.60;;;7.00;;
20423;SDS011;10371;49.042;8.002;2023-05-10T04:11:08;8.35;;;7.70;;
20423;SDS011;10371;49.042;8.002;2023-05-10T04:12:10;8.80;;;8.10;;
20423;SDS011;10371;49.042;8.002;2023-05-10T04:13:10;9.15;;;8.48;;
20423;SDS011;10371;49.042;8.002;2023-05-10T04:14:11;9.57;;;8.80;;
20423;SDS011;10371;49.042;8.002;2023-05-10T04:15:11;8.63;;;8.02;;
20423;SDS011;10371;49.042;8.002;2023-05-10T04:16:11;8.25;;;7.65;;
20423;SDS011;10371;49.042;8.002;2023-05-10T04:17:11;8.15;;;7.45;;
20423;SDS011;10371;49.042;8.002;2023-05-10T04:18:12;8.55;;;7.95;;
20423;SDS011;10371;49.042;8.002;2023-05-10T04:19:12;9.63;;;8.85;;
20423;SDS011;10371;49.042;8.002;2023-05-10T04:20:12;10.07;;;9.15;;
20423;SDS011;10371;49.042;8.002;2023-05-10T04:21:13;10.35;;;9.60;;
20423;SDS011;10371;49.042;8.002;2023-05-10T04:22:14;11.32;;;10.32;;
20423;SDS011;10371;49.042;8.002;2023-05-10T04:23:14;11.77;;;10.88;;
20423;SDS011;10371;49.042;8.002;2023-05-10T04:24:16;11.52;;;10.63;;
20423;SDS011;10371;49.042;8.002;2023-05-10T04:25:16;10.13;;;9.27;;
20423;SDS011;10371;49.042;8.002;2023-05-10T04:26:17;10.18;;;9.38;;
20423;SDS011;10371;49.042;8.002;2023-05-10T04:27:17;9.10;;;8.50;;
20423;SDS011;10371;49.042;8.002;2023-05-10T04:28:17;8.45;;;7.85;;
20423;SDS011;10371;49.042;8.002;2023-05-10T04:29:18;8.10;;;7.40;;
20423;SDS011;10371;49.042;8.002;2023-05-10T04:30:18;8.82;;;8.05;;
20423;SDS011;10371;49.042;8.002;2023-05-10T04:31:18;8.45;;;7.75;;
20423;SDS011;10371;49.042;8.002;2023-05-10T04:32:19;7.85;;;7.25;;
20423;SDS011;10371;49.042;8.002;2023-05-10T04:33:20;7.60;;;7.07;;
20423;SDS011;10371;49.042;8.002;2023-05-10T04:34:20;8.48;;;7.80;;
20423;SDS011;10371;49.042;8.002;2023-05-10T04:35:21;8.85;;;8.05;;
20423;SDS011;10371;49.042;8.002;2023-05-10T04:36:21;11.60;;;10.40;;
20423;SDS011;10371;49.042;8.002;2023-05-10T04:37:21;10.20;;;9.40;;
20423;SDS011;10371;49.042;8.002;2023-05-10T04:38:22;10.70;;;9.80;;
20423;SDS011;10371;49.042;8.002;2023-05-10T04:39:23;10.10;;;9.20;;
20423;SDS011;10371;49.042;8.002;2023-05-10T04:40:23;8.85;;;8.07;;
20423;SDS011;10371;49.042;8.002;2023-05-10T04:41:23;9.13;;;8.43;;
20423;SDS011;10371;49.042;8.002;2023-05-10T04:42:25;9.20;;;8.50;;
20423;SDS011;10371;49.042;8.002;2023-05-10T04:43:26;9.13;;;8.43;;
20423;SDS011;10371;49.042;8.002;2023-05-10T04:44:26;10.07;;;9.27;;
20423;SDS011;10371;49.042;8.002;2023-05-10T04:45:26;9.57;;;8.88;;
20423;SDS011;10371;49.042;8.002;2023-05-10T04:46:26;10.77;;;9.95;;
20423;SDS011;10371;49.042;8.002;2023-05-10T04:47:27;11.48;;;10.57;;
20423;SDS011;10371;49.042;8.002;2023-05-10T04:48:27;11.55;;;10.75;;
20423;SDS011;10371;49.042;8.002;2023-05-10T04:49:28;11.23;;;10.32;;
20423;SDS011;10371;49.042;8.002;2023-05-10T04:50:29;12.63;;;11.63;;
20423;SDS011;10371;49.042;8.002;2023-05-10T04:51:29;13.48;;;12.27;;
20423;SDS011;10371;49.042;8.002;2023-05-10T04:52:30;13.52;;;12.32;;
20423;SDS011;10371;49.042;8.002;2023-05-10T04:53:30;12.48;;;11.43;;
20423;SDS011;10371;49.042;8.002;2023-05-10T04:54:31;10.52;;;9.73;;
20423;SDS011;10371;49.042;8.002;2023-05-10T04:55:31;10.48;;;9.57;;
20423;SDS011;10371;49.042;8.002;2023-05-10T04:56:31;9.18;;;8.48;;
20423;SDS011;10371;49.042;8.002;2023-05-10T04:57:32;9.30;;;8.60;;
20423;SDS011;10371;49.042;8.002;2023-05-10T04:58:32;8.50;;;7.70;;
20423;SDS011;10371;49.042;8.002;2023-05-10T04:59:35;7.30;;;6.80;;
20423;SDS011;10371;49.042;8.002;2023-05-10T05:00:35;7.93;;;7.32;;
20423;SDS011;10371;49.042;8.002;2023-05-10T05:01:36;7.82;;;7.15;;
20423;SDS011;10371;49.042;8.002;2023-05-10T05:02:36;7.15;;;6.65;;
20423;SDS011;10371;49.042;8.002;2023-05-10T05:03:36;7.78;;;7.20;;
20423;SDS011;10371;49.042;8.002;2023-05-10T05:04:37;6.75;;;6.25;;
20423;SDS011;10371;49.042;8.002;2023-05-10T05:05:37;7.32;;;6.63;;
20423;SDS011;10371;49.042;8.002;2023-05-10T05:06:37;6.85;;;6.28;;
20423;SDS011;10371;49.042;8.002;2023-05-10T05:07:37;7.25;;;6.53;;
20423;SDS011;10371;49.042;8.002;2023-05-10T05:08:41;7.05;;;6.43;;
20423;SDS011;10371;49.042;8.002;2023-05-10T05:09:41;6.45;;;6.00;;
20423;SDS011;10371;49.042;8.002;2023-05-10T05:10:41;7.05;;;6.55;;
20423;SDS011;10371;49.042;8.002;2023-05-10T05:11:42;7.88;;;7.35;;
20423;SDS011;10371;49.042;8.002;2023-05-10T05:12:42;7.50;;;6.90;;
20423;SDS011;10371;49.042;8.002;2023-05-10T05:13:42;7.50;;;6.88;;
20423;SDS011;10371;49.042;8.002;2023-05-10T05:14:43;6.90;;;6.32;;
20423;SDS011;10371;49.042;8.002;2023-05-10T05:15:43;6.90;;;6.20;;
20423;SDS011;10371;49.042;8.002;2023-05-10T05:16:43;7.47;;;6.60;;
20423;SDS011;10371;49.042;8.002;2023-05-10T05:17:44;6.68;;;6.10;;
20423;SDS011;10371;49.042;8.002;2023-05-10T05:18:44;6.68;;;6.05;;
20423;SDS011;10371;49.042;8.002;2023-05-10T05:19:44;6.97;;;6.47;;
20423;SDS011;10371;49.042;8.002;2023-05-10T05:20:45;6.38;;;5.97;;
20423;SDS011;10371;49.042;8.002;2023-05-10T05:21:45;7.22;;;6.70;;
20423;SDS011;10371;49.042;8.002;2023-05-10T05:22:45;8.48;;;7.68;;
20423;SDS011;10371;49.042;8.002;2023-05-10T05:23:45;8.73;;;8.13;;
20423;SDS011;10371;49.042;8.002;2023-05-10T05:24:46;8.77;;;8.10;;
20423;SDS011;10371;49.042;8.002;2023-05-10T05:25:46;9.50;;;8.70;;
20423;SDS011;10371;49.042;8.002;2023-05-10T05:26:46;8.13;;;7.60;;
20423;SDS011;10371;49.042;8.002;2023-05-10T05:27:47;9.15;;;8.45;;
20423;SDS011;10371;49.042;8.002;2023-05-10T05:28:47;8.90;;;8.27;;
20423;SDS011;10371;49.042;8.002;2023-05-10T05:29:48;8.50;;;7.90;;
20423;SDS011;10371;49.042;8.002;2023-05-10T05:30:48;8.05;;;7.45;;
20423;SDS011;10371;49.042;8.002;2023-05-10T05:31:49;7.88;;;7.13;;
20423;SDS011;10371;49.042;8.002;2023-05-10T05:32:49;7.10;;;6.60;;
20423;SDS011;10371;49.042;8.002;2023-05-10T05:33:49;7.47;;;6.82;;
20423;SDS011;10371;49.042;8.002;2023-05-10T05:34:49;5.97;;;5.47;;
20423;SDS011;10371;49.042;8.002;2023-05-10T05:35:50;4.88;;;4.50;;
20423;SDS011;10371;49.042;8.002;2023-05-10T05:36:50;5.38;;;4.97;;
20423;SDS011;10371;49.042;8.002;2023-05-10T05:37:51;5.15;;;4.80;;
20423;SDS011;10371;49.042;8.002;2023-05-10T05:38:51;4.43;;;4.13;;
20423;SDS011;10371;49.042;8.002;2023-05-10T05:39:51;4.28;;;3.83;;
20423;SDS011;10371;49.042;8.002;2023-05-10T05:40:52;4.40;;;4.00;;
20423;SDS011;10371;49.042;8.002;2023-05-10T05:41:52;4.03;;;3.72;;
20423;SDS011;10371;49.042;8.002;2023-05-10T05:42:52;3.58;;;3.33;;
20423;SDS011;10371;49.042;8.002;2023-05-10T05:43:52;4.55;;;3.88;;
20423;SDS011;10371;49.042;8.002;2023-05-10T05:44:53;3.50;;;3.20;;
20423;SDS011;10371;49.042;8.002;2023-05-10T05:45:53;3.45;;;3.25;;
20423;SDS011;10371;49.042;8.002;2023-05-10T05:46:53;3.20;;;3.00;;
20423;SDS011;10371;49.042;8.002;2023-05-10T05:47:54;3.45;;;3.25;;
20423;SDS011;10371;49.042;8.002;2023-05-10T05:48:54;4.00;;;3.70;;
20423;SDS011;10371;49.042;8.002;2023-05-10T05:49:55;3.75;;;3.40;;
20423;SDS011;10371;49.042;8.002;2023-05-10T05:50:55;4.07;;;3.22;;
20423;SDS011;10371;49.042;8.002;2023-05-10T05:51:59;3.60;;;3.38;;
20423;SDS011;10371;49.042;8.002;2023-05-10T05:53:00;3.58;;;3.38;;
20423;SDS011;10371;49.042;8.002;2023-05-10T05:54:01;3.10;;;2.90;;
20423;SDS011;10371;49.042;8.002;2023-05-10T05:55:03;4.60;;;3.28;;
20423;SDS011;10371;49.042;8.002;2023-05-10T05:56:04;3.63;;;3.35;;
20423;SDS011;10371;49.042;8.002;2023-05-10T05:57:04;4.22;;;3.78;;
20423;SDS011;10371;49.042;8.002;2023-05-10T05:58:05;4.18;;;3.63;;
20423;SDS011;10371;49.042;8.002;2023-05-10T05:59:05;3.60;;;3.30;;
20423;SDS011;10371;49.042;8.002;2023-05-10T06:00:06;3.38;;;3.08;;
20423;SDS011;10371;49.042;8.002;2023-05-10T06:01:06;2.95;;;2.75;;
20423;SDS011;10371;49.042;8.002;2023-05-10T06:02:08;3.72;;;3.22;;
20423;SDS011;10371;49.042;8.002;2023-05-10T06:03:08;3.20;;;2.90;;
20423;SDS011;10371;49.042;8.002;2023-05-10T06:04:08;3.47;;;3.00;;
20423;SDS011;10371;49.042;8.002;2023-05-10T06:05:09;3.08;;;2.88;;
20423;SDS011;10371;49.042;8.002;2023-05-10T06:06:09;3.28;;;3.08;;
20423;SDS011;10371;49.042;8.002;2023-05-10T06:07:09;3.38;;;2.88;;
20423;SDS011;10371;49.042;8.002;2023-05-10T06:08:10;3.40;;;3.05;;
20423;SDS011;10371;49.042;8.002;2023-05-10T06:09:10;2.90;;;2.70;;
20423;SDS011;10371;49.042;8.002;2023-05-10T06:10:11;3.00;;;2.80;;
20423;SDS011;10371;49.042;8.002;2023-05-10T06:11:11;3.00;;;2.75;;
20423;SDS011;10371;49.042;8.002;2023-05-10T06:12:11;3.03;;;2.67;;
20423;SDS011;10371;49.042;8.002;2023-05-10T06:13:12;2.42;;;2.22;;
20423;SDS011;10371;49.042;8.002;2023-05-10T06:14:12;2.42;;;2.33;;
20423;SDS011;10371;49.042;8.002;2023-05-10T06:15:12;2.42;;;2.28;;
20423;SDS011;10371;49.042;8.002;2023-05-10T06:16:13;4.93;;;2.53;;
20423;SDS011;10371;49.042;8.002;2023-05-10T06:17:13;2.25;;;2.15;;
20423;SDS011;10371;49.042;8.002;2023-05-10T06:18:14;1.98;;;1.70;;
20423;SDS011;10371;49.042;8.002;2023-05-10T06:19:14;2.22;;;1.90;;
20423;SDS011;10371;49.042;8.002;2023-05-10T06:20:14;1.92;;;1.80;;
20423;SDS011;10371;49.042;8.002;2023-05-10T06:21:15;1.88;;;1.67;;
20423;SDS011;10371;49.042;8.002;2023-05-10T06:22:16;2.42;;;1.80;;
20423;SDS011;10371;49.042;8.002;2023-05-10T06:23:16;2.92;;;1.67;;